createdAt,value
2023-11-26T00:00:16.153Z,35.32
2023-11-26T00:02:46.229Z,35.27
2023-11-26T00:05:14.326Z,35.24
2023-11-26T00:07:42.344Z,35.34
2023-11-26T00:10:10.674Z,35.35
2023-11-26T00:12:38.932Z,35.44
2023-11-26T00:15:10.230Z,35.30
2023-11-26T00:17:37.450Z,35.39
2023-11-26T00:20:08.871Z,35.39
2023-11-26T00:22:36.981Z,35.24
2023-11-26T00:25:05.343Z,35.09
2023-11-26T00:27:33.408Z,35.17
2023-11-26T00:30:01.555Z,35.53
2023-11-26T00:32:32.216Z,35.40
2023-11-26T00:35:01.147Z,35.42
2023-11-26T00:37:30.526Z,35.40
2023-11-26T00:39:59.195Z,35.21
2023-11-26T00:42:27.494Z,35.17
2023-11-26T00:44:55.531Z,35.18
2023-11-26T00:47:23.597Z,35.18
2023-11-26T00:49:52.015Z,35.32
2023-11-26T00:52:20.748Z,35.35
2023-11-26T00:54:50.076Z,35.25
2023-11-26T00:57:18.740Z,35.23
2023-11-26T00:59:46.711Z,35.18
2023-11-26T01:02:15.037Z,35.49
2023-11-26T01:04:43.101Z,35.09
2023-11-26T01:07:11.012Z,35.33
2023-11-26T01:09:38.996Z,35.37
2023-11-26T01:12:09.267Z,35.14
2023-11-26T01:14:37.350Z,35.29
2023-11-26T01:17:05.466Z,35.26
2023-11-26T01:19:34.272Z,35.15
2023-11-26T01:22:02.509Z,35.33
2023-11-26T01:24:30.703Z,35.21
2023-11-26T01:26:58.710Z,35.22
2023-11-26T01:29:28.096Z,35.00
2023-11-26T01:31:56.414Z,35.26
2023-11-26T01:34:24.449Z,35.15
2023-11-26T01:36:52.414Z,34.99
2023-11-26T01:39:20.433Z,35.18
2023-11-26T01:41:48.681Z,35.11
2023-11-26T01:44:16.768Z,35.21
2023-11-26T01:46:46.159Z,35.00
2023-11-26T01:49:14.087Z,35.15
2023-11-26T01:51:42.173Z,34.71
2023-11-26T01:54:10.140Z,34.97
2023-11-26T01:56:38.215Z,35.08
2023-11-26T01:59:06.239Z,35.12
2023-11-26T02:01:34.534Z,34.92
2023-11-26T02:04:04.155Z,35.03
2023-11-26T02:06:32.533Z,35.31
2023-11-26T02:09:00.533Z,34.95
2023-11-26T02:11:28.866Z,34.92
2023-11-26T02:13:57.313Z,34.97
2023-11-26T02:16:25.788Z,34.98
2023-11-26T02:18:53.822Z,34.98
2023-11-26T02:21:23.958Z,35.01
2023-11-26T02:23:52.161Z,34.91
2023-11-26T02:26:22.363Z,35.08
2023-11-26T02:28:50.425Z,34.93
2023-11-26T02:31:18.459Z,34.96
2023-11-26T02:33:54.804Z,35.10
2023-11-26T02:36:26.975Z,34.96
2023-11-26T02:38:55.834Z,34.85
2023-11-26T02:41:25.818Z,35.19
2023-11-26T02:43:53.952Z,35.21
2023-11-26T02:46:22.430Z,34.98
2023-11-26T02:48:50.379Z,34.93
2023-11-26T02:51:18.363Z,35.03
2023-11-26T02:53:46.398Z,34.90
2023-11-26T02:56:15.125Z,34.97
2023-11-26T02:58:44.541Z,34.92
2023-11-26T03:01:19.431Z,34.99
2023-11-26T03:03:48.670Z,34.86
2023-11-26T03:06:17.220Z,34.99
2023-11-26T03:08:45.402Z,34.71
2023-11-26T03:11:31.140Z,34.90
2023-11-26T03:14:00.575Z,34.70
2023-11-26T03:16:28.748Z,35.09
2023-11-26T03:18:56.874Z,34.97
2023-11-26T03:21:30.170Z,35.05
2023-11-26T03:23:58.260Z,34.90
2023-11-26T03:26:28.222Z,34.96
2023-11-26T03:28:57.775Z,34.97
2023-11-26T03:31:28.703Z,34.95
2023-11-26T03:33:56.767Z,34.94
2023-11-26T03:36:24.807Z,34.77
2023-11-26T03:38:53.666Z,34.82
2023-11-26T03:41:21.948Z,34.99
2023-11-26T03:43:49.981Z,35.10
2023-11-26T03:46:18.356Z,34.88
2023-11-26T03:48:47.701Z,34.87
2023-11-26T03:51:18.993Z,34.75
2023-11-26T03:53:47.000Z,34.83
2023-11-26T03:56:15.392Z,34.93
2023-11-26T03:58:43.543Z,34.69
2023-11-26T04:01:12.924Z,34.76
2023-11-26T04:03:41.080Z,34.56
2023-11-26T04:06:10.695Z,35.01
2023-11-26T04:08:38.669Z,34.86
2023-11-26T04:11:07.406Z,34.81
2023-11-26T04:13:35.461Z,34.57
2023-11-26T04:16:06.087Z,34.91
2023-11-26T04:18:35.157Z,34.95
2023-11-26T04:21:03.765Z,34.83
2023-11-26T04:23:34.160Z,34.89
2023-11-26T04:26:02.755Z,34.95
2023-11-26T04:28:31.806Z,34.77
2023-11-26T04:31:00.171Z,34.69
2023-11-26T04:33:28.191Z,34.74
2023-11-26T04:35:56.157Z,34.60
2023-11-26T04:38:24.166Z,34.31
2023-11-26T04:40:53.862Z,34.82
2023-11-26T04:43:22.713Z,34.56
2023-11-26T04:45:50.669Z,34.70
2023-11-26T04:48:18.652Z,34.75
2023-11-26T04:50:46.633Z,34.58
2023-11-26T04:53:14.955Z,34.40
2023-11-26T04:55:43.808Z,34.92
2023-11-26T04:58:13.516Z,34.97
2023-11-26T05:00:41.754Z,34.83
2023-11-26T05:03:09.997Z,34.66
2023-11-26T05:05:38.407Z,34.70
2023-11-26T05:08:07.193Z,34.49
2023-11-26T05:10:35.842Z,34.98
2023-11-26T05:13:03.875Z,34.82
2023-11-26T05:15:33.176Z,34.83
2023-11-26T05:18:01.246Z,34.80
2023-11-26T05:20:29.297Z,34.47
2023-11-26T05:22:58.110Z,34.75
2023-11-26T05:25:26.738Z,34.86
2023-11-26T05:27:54.735Z,34.65
2023-11-26T05:30:22.902Z,34.63
2023-11-26T05:32:52.273Z,34.63
2023-11-26T05:35:20.914Z,34.63
2023-11-26T05:37:48.972Z,34.47
2023-11-26T05:40:16.937Z,34.90
2023-11-26T05:42:45.537Z,34.48
2023-11-26T05:45:13.743Z,34.58
2023-11-26T05:47:41.835Z,34.53
2023-11-26T05:50:12.037Z,34.36
2023-11-26T05:52:40.079Z,34.48
2023-11-26T05:55:08.719Z,34.58
2023-11-26T05:57:36.726Z,34.65
2023-11-26T06:00:08.363Z,34.82
2023-11-26T06:02:36.687Z,34.82
2023-11-26T06:05:04.769Z,34.56
2023-11-26T06:07:34.422Z,34.43
2023-11-26T06:10:02.414Z,34.86
2023-11-26T06:12:30.703Z,34.71
2023-11-26T06:14:58.627Z,34.52
2023-11-26T06:17:26.602Z,34.56
2023-11-26T06:19:54.578Z,34.44
2023-11-26T06:22:23.136Z,34.62
2023-11-26T06:24:52.541Z,34.59
2023-11-26T06:27:20.518Z,34.52
2023-11-26T06:29:48.520Z,34.59
2023-11-26T06:32:16.742Z,34.67
2023-11-26T06:34:44.996Z,34.54
2023-11-26T06:37:12.930Z,34.25
2023-11-26T06:39:40.907Z,34.75
2023-11-26T06:42:11.352Z,34.47
2023-11-26T06:44:39.358Z,34.57
2023-11-26T06:47:07.457Z,34.64
2023-11-26T06:49:35.435Z,34.51
2023-11-26T06:52:03.684Z,34.53
2023-11-26T06:54:31.691Z,34.85
2023-11-26T06:56:59.752Z,34.45
2023-11-26T06:59:29.117Z,34.23
2023-11-26T07:01:57.427Z,34.25
2023-11-26T07:04:25.572Z,34.57
2023-11-26T07:06:53.612Z,34.68
2023-11-26T07:09:21.642Z,34.51
2023-11-26T07:11:49.903Z,34.29
2023-11-26T07:14:17.836Z,34.52
2023-11-26T07:16:47.384Z,34.51
2023-11-26T07:19:15.340Z,34.58
2023-11-26T07:21:43.797Z,34.41
2023-11-26T07:24:11.858Z,34.36
2023-11-26T07:26:40.027Z,34.36
2023-11-26T07:29:10.965Z,34.31
2023-11-26T07:31:40.217Z,34.49
2023-11-26T07:34:09.726Z,34.37
2023-11-26T07:36:38.216Z,34.45
2023-11-26T07:39:06.357Z,34.19
2023-11-26T07:41:34.960Z,34.37
2023-11-26T07:44:02.946Z,34.32
2023-11-26T07:46:31.301Z,34.33
2023-11-26T07:48:59.557Z,34.46
2023-11-26T07:51:28.939Z,34.39
2023-11-26T07:53:56.940Z,34.35
2023-11-26T07:56:24.924Z,34.39
2023-11-26T07:58:53.000Z,34.12
2023-11-26T08:01:21.262Z,34.44
2023-11-26T08:03:50.926Z,34.19
2023-11-26T08:06:19.329Z,34.44
2023-11-26T08:08:48.669Z,34.58
2023-11-26T08:11:17.380Z,34.51
2023-11-26T08:13:46.053Z,34.09
2023-11-26T08:16:15.591Z,34.06
2023-11-26T08:18:43.701Z,34.54
2023-11-26T08:21:11.978Z,34.34
2023-11-26T08:23:41.653Z,34.44
2023-11-26T08:26:14.497Z,34.36
2023-11-26T08:28:44.029Z,34.27
2023-11-26T08:31:12.940Z,34.42
2023-11-26T08:33:44.858Z,34.52
2023-11-26T08:36:16.626Z,34.35
2023-11-26T08:38:44.829Z,34.05
2023-11-26T08:41:15.180Z,34.31
2023-11-26T08:43:45.605Z,34.36
2023-11-26T08:46:17.610Z,34.29
2023-11-26T08:48:46.213Z,34.23
2023-11-26T08:51:14.910Z,34.18
2023-11-26T08:53:42.932Z,34.60
2023-11-26T08:56:11.271Z,34.39
2023-11-26T08:58:40.606Z,34.38
2023-11-26T09:01:08.831Z,34.57
2023-11-26T09:03:38.723Z,34.46
2023-11-26T09:06:09.210Z,34.13
2023-11-26T09:08:37.320Z,34.26
2023-11-26T09:11:05.603Z,34.35
2023-11-26T09:13:33.566Z,34.36
2023-11-26T09:16:03.256Z,34.15
2023-11-26T09:18:31.267Z,34.19
2023-11-26T09:20:59.865Z,34.35
2023-11-26T09:23:29.835Z,34.29
2023-11-26T09:25:58.586Z,34.54
2023-11-26T09:28:26.812Z,34.25
2023-11-26T09:30:54.767Z,34.21
2023-11-26T09:33:24.248Z,34.56
2023-11-26T09:35:52.755Z,34.42
2023-11-26T09:38:20.688Z,34.40
2023-11-26T09:40:48.629Z,34.30
2023-11-26T09:43:16.544Z,34.36
2023-11-26T09:45:46.824Z,34.22
2023-11-26T09:48:14.930Z,34.18
2023-11-26T09:50:44.354Z,34.29
2023-11-26T09:53:12.326Z,34.33
2023-11-26T09:55:41.208Z,34.54
2023-11-26T09:58:09.428Z,34.11
2023-11-26T10:00:37.973Z,34.36
2023-11-26T10:03:06.448Z,34.25
2023-11-26T10:05:34.649Z,34.44
2023-11-26T10:08:04.224Z,34.35
2023-11-26T10:10:32.608Z,34.28
2023-11-26T10:13:01.618Z,34.51
2023-11-26T10:15:30.673Z,34.33
2023-11-26T10:18:04.731Z,34.36
2023-11-26T10:20:33.395Z,34.31
2023-11-26T10:23:01.333Z,34.22
2023-11-26T10:25:30.715Z,34.03
2023-11-26T10:28:00.851Z,34.44
2023-11-26T10:30:30.269Z,34.41
2023-11-26T10:33:03.599Z,34.23
2023-11-26T10:35:55.161Z,34.64
2023-11-26T10:38:26.941Z,34.26
2023-11-26T10:40:58.004Z,34.41
2023-11-26T10:43:26.510Z,34.27
2023-11-26T10:45:54.512Z,34.34
2023-11-26T10:48:23.995Z,34.10
2023-11-26T10:50:55.780Z,34.31
2023-11-26T10:53:23.689Z,34.27
2023-11-26T10:55:53.345Z,34.63
2023-11-26T10:58:23.849Z,34.20
2023-11-26T11:00:55.212Z,34.32
2023-11-26T11:03:25.457Z,34.44
2023-11-26T11:05:55.396Z,34.37
2023-11-26T11:08:25.200Z,34.26
2023-11-26T11:10:59.604Z,34.35
2023-11-26T11:13:28.961Z,34.33
2023-11-26T11:15:56.951Z,34.44
2023-11-26T11:18:40.969Z,34.28
2023-11-26T11:21:11.201Z,34.50
2023-11-26T11:23:40.472Z,34.50
2023-11-26T11:26:09.074Z,34.42
2023-11-26T11:28:40.032Z,34.49
2023-11-26T11:31:09.512Z,34.31
2023-11-26T11:33:37.593Z,34.42
2023-11-26T11:36:09.140Z,34.21
2023-11-26T11:39:05.043Z,34.46
2023-11-26T11:41:33.033Z,34.45
2023-11-26T11:44:30.041Z,34.43
2023-11-26T11:46:58.030Z,34.25
2023-11-26T11:49:29.691Z,34.37
2023-11-26T11:51:57.704Z,34.37
2023-11-26T11:54:56.619Z,34.52
2023-11-26T11:57:25.918Z,34.35
2023-11-26T11:59:56.442Z,34.56
2023-11-26T12:02:24.751Z,34.37
2023-11-26T12:04:53.070Z,34.46
2023-11-26T12:07:21.833Z,34.39
2023-11-26T12:09:49.869Z,34.33
2023-11-26T12:12:21.417Z,34.32
2023-11-26T12:14:49.648Z,34.16
2023-11-26T12:17:19.050Z,34.22
2023-11-26T12:19:47.027Z,34.39
2023-11-26T12:22:15.627Z,34.35
2023-11-26T12:24:43.681Z,34.44
2023-11-26T12:27:23.563Z,34.34
2023-11-26T12:29:51.575Z,34.09
2023-11-26T12:32:27.618Z,34.42
2023-11-26T12:35:01.975Z,34.45
2023-11-26T12:37:29.968Z,34.38
2023-11-26T12:39:57.927Z,34.38
2023-11-26T12:42:27.750Z,34.35
2023-11-26T12:44:55.810Z,34.30
2023-11-26T12:47:25.293Z,34.31
2023-11-26T12:49:58.683Z,34.42
2023-11-26T12:52:26.700Z,34.47
2023-11-26T12:54:54.628Z,34.28
2023-11-26T12:57:22.693Z,34.62
2023-11-26T12:59:50.660Z,34.34
2023-11-26T13:02:19.214Z,34.45
2023-11-26T13:04:48.717Z,34.18
2023-11-26T13:07:17.359Z,34.31
2023-11-26T13:09:49.847Z,34.32
2023-11-26T13:12:20.369Z,34.21
2023-11-26T13:14:49.766Z,34.49
2023-11-26T13:17:20.731Z,34.48
2023-11-26T13:19:50.689Z,34.36
2023-11-26T13:22:18.954Z,34.31
2023-11-26T13:24:46.974Z,34.43
2023-11-26T13:27:14.995Z,34.49
2023-11-26T13:29:44.301Z,34.32
2023-11-26T13:32:13.370Z,34.31
2023-11-26T13:34:41.501Z,34.38
2023-11-26T13:37:11.132Z,34.44
2023-11-26T13:39:39.083Z,34.54
2023-11-26T13:42:07.497Z,34.49
2023-11-26T13:44:36.758Z,34.38
2023-11-26T13:47:05.421Z,34.53
2023-11-26T13:49:33.474Z,34.44
2023-11-26T13:52:01.921Z,34.62
2023-11-26T13:54:31.303Z,34.49
2023-11-26T13:56:59.317Z,34.48
2023-11-26T13:59:27.446Z,34.38
2023-11-26T14:01:55.860Z,34.48
2023-11-26T14:04:26.402Z,34.48
2023-11-26T14:06:58.878Z,34.32
2023-11-26T14:09:27.154Z,34.36
2023-11-26T14:11:56.519Z,34.51
2023-11-26T14:14:24.484Z,34.46
2023-11-26T14:16:52.602Z,34.50
2023-11-26T14:19:21.461Z,34.49
2023-11-26T14:21:49.501Z,34.77
2023-11-26T14:24:17.493Z,34.50
2023-11-26T14:26:45.730Z,34.61
2023-11-26T14:29:16.005Z,34.57
2023-11-26T14:31:45.633Z,34.55
2023-11-26T14:34:13.737Z,34.50
2023-11-26T14:36:41.844Z,34.55
2023-11-26T14:39:13.018Z,34.12
2023-11-26T14:41:41.535Z,34.30
2023-11-26T14:44:09.588Z,34.47
2023-11-26T14:46:39.377Z,34.50
2023-11-26T14:49:10.122Z,34.44
2023-11-26T14:51:38.192Z,34.53
2023-11-26T14:54:06.374Z,34.57
2023-11-26T14:56:38.637Z,34.41
2023-11-26T14:59:06.612Z,34.41
2023-11-26T15:01:34.966Z,34.51
2023-11-26T15:04:03.784Z,34.41
2023-11-26T15:06:32.020Z,34.50
2023-11-26T15:09:00.689Z,34.47
2023-11-26T15:11:29.822Z,34.49
2023-11-26T15:13:57.773Z,34.36
2023-11-26T15:16:25.810Z,34.48
2023-11-26T15:18:53.957Z,34.56
2023-11-26T15:21:24.609Z,34.39
2023-11-26T15:23:52.606Z,34.57
2023-11-26T15:26:22.967Z,34.48
2023-11-26T15:28:50.974Z,34.37
2023-11-26T15:31:19.313Z,34.36
2023-11-26T15:33:47.429Z,34.39
2023-11-26T15:36:18.184Z,34.49
2023-11-26T15:38:48.812Z,34.41
2023-11-26T15:41:21.664Z,34.61
2023-11-26T15:43:50.220Z,34.43
2023-11-26T15:46:21.837Z,34.50
2023-11-26T15:48:49.859Z,34.25
2023-11-26T15:51:18.013Z,34.47
2023-11-26T15:54:01.872Z,34.18
2023-11-26T15:56:32.006Z,34.62
2023-11-26T15:59:03.025Z,34.67
2023-11-26T16:01:31.409Z,34.48
2023-11-26T16:03:59.614Z,34.49
2023-11-26T16:06:29.736Z,34.66
2023-11-26T16:09:00.705Z,34.50
2023-11-26T16:11:31.804Z,34.47
2023-11-26T16:13:59.954Z,34.53
2023-11-26T16:16:28.010Z,34.42
2023-11-26T16:18:56.598Z,34.34
2023-11-26T16:21:26.327Z,34.32
2023-11-26T16:23:58.825Z,34.44
2023-11-26T16:26:29.019Z,34.47
2023-11-26T16:28:57.030Z,34.33
2023-11-26T16:31:25.409Z,34.49
2023-11-26T16:33:54.473Z,34.34
2023-11-26T16:36:23.974Z,34.50
2023-11-26T16:38:53.715Z,34.43
2023-11-26T16:41:22.408Z,34.77
2023-11-26T16:43:51.765Z,34.56
2023-11-26T16:46:19.840Z,34.59
2023-11-26T16:48:47.920Z,34.39
2023-11-26T16:51:16.750Z,34.50
2023-11-26T16:53:44.759Z,34.41
2023-11-26T16:56:12.862Z,34.34
2023-11-26T16:58:40.852Z,34.31
2023-11-26T17:01:12.310Z,34.73
2023-11-26T17:03:40.549Z,34.64
2023-11-26T17:06:09.517Z,34.46
2023-11-26T17:08:37.481Z,34.46
2023-11-26T17:11:06.757Z,34.39
2023-11-26T17:13:34.758Z,34.44
2023-11-26T17:16:02.908Z,34.70
2023-11-26T17:18:33.194Z,34.48
2023-11-26T17:21:01.143Z,34.32
2023-11-26T17:23:29.200Z,34.44
2023-11-26T17:25:57.948Z,34.44
2023-11-26T17:28:25.997Z,34.37
2023-11-26T17:30:54.023Z,34.30
2023-11-26T17:33:21.999Z,34.41
2023-11-26T17:35:51.345Z,34.57
2023-11-26T17:38:19.313Z,34.36
2023-11-26T17:40:48.647Z,34.64
2023-11-26T17:43:16.597Z,34.50
2023-11-26T17:45:45.493Z,34.50
2023-11-26T17:48:13.774Z,34.39
2023-11-26T17:50:42.705Z,34.39
2023-11-26T17:53:13.396Z,34.45
2023-11-26T17:55:42.512Z,34.77
2023-11-26T17:58:10.532Z,34.51
2023-11-26T18:00:38.975Z,34.53
2023-11-26T18:03:09.541Z,34.59
2023-11-26T18:05:37.691Z,34.21
2023-11-26T18:08:06.265Z,34.32
2023-11-26T18:10:37.595Z,34.47
2023-11-26T18:13:05.881Z,34.41
2023-11-26T18:15:34.208Z,34.33
2023-11-26T18:18:02.352Z,33.98
2023-11-26T18:20:30.754Z,34.38
2023-11-26T18:22:59.565Z,34.38
2023-11-26T18:25:27.508Z,34.60
2023-11-26T18:27:57.477Z,34.42
2023-11-26T18:30:25.890Z,34.44
2023-11-26T18:32:54.256Z,34.37
2023-11-26T18:35:22.300Z,34.28
2023-11-26T18:37:50.999Z,34.50
2023-11-26T18:40:19.002Z,34.17
2023-11-26T18:42:50.554Z,34.41
2023-11-26T18:45:20.316Z,34.53
2023-11-26T18:47:48.746Z,34.41
2023-11-26T18:50:17.124Z,34.31
2023-11-26T18:52:45.089Z,34.46
2023-11-26T18:55:13.412Z,34.59
2023-11-26T18:57:41.494Z,34.41
2023-11-26T19:00:13.603Z,34.29
2023-11-26T19:02:43.837Z,34.39
2023-11-26T19:05:13.925Z,34.60
2023-11-26T19:07:41.926Z,34.58
2023-11-26T19:10:11.203Z,34.56
2023-11-26T19:12:39.720Z,34.32
2023-11-26T19:15:10.644Z,34.44
2023-11-26T19:17:38.709Z,34.42
2023-11-26T19:20:11.162Z,34.70
2023-11-26T19:22:39.640Z,34.41
2023-11-26T19:25:08.524Z,34.49
2023-11-26T19:27:36.637Z,34.58
2023-11-26T19:30:05.169Z,34.55
2023-11-26T19:32:33.817Z,34.51
2023-11-26T19:35:02.597Z,34.53
2023-11-26T19:37:31.954Z,34.48
2023-11-26T19:39:59.970Z,34.74
2023-11-26T19:42:28.373Z,34.66
2023-11-26T19:44:57.206Z,34.65
2023-11-26T19:47:25.095Z,34.48
2023-11-26T19:49:53.407Z,34.38
2023-11-26T19:52:21.381Z,34.60
2023-11-26T19:54:50.768Z,34.30
2023-11-26T19:57:18.982Z,34.45
2023-11-26T19:59:46.922Z,34.57
2023-11-26T20:02:15.222Z,34.32
2023-11-26T20:04:43.188Z,34.44
2023-11-26T20:07:11.180Z,34.50
2023-11-26T20:09:39.177Z,34.29
2023-11-26T20:12:09.499Z,34.51
2023-11-26T20:14:37.504Z,34.39
2023-11-26T20:17:08.053Z,34.44
2023-11-26T20:19:36.368Z,34.24
2023-11-26T20:22:04.834Z,34.25
2023-11-26T20:24:33.978Z,34.15
2023-11-26T20:27:03.831Z,34.33
2023-11-26T20:29:34.262Z,34.45
2023-11-26T20:32:02.609Z,34.44
2023-11-26T20:34:30.600Z,34.47
2023-11-26T20:36:58.722Z,34.34
2023-11-26T20:39:26.773Z,34.54
2023-11-26T20:41:55.088Z,34.43
2023-11-26T20:44:23.031Z,34.57
2023-11-26T20:46:52.439Z,34.31
2023-11-26T20:49:20.484Z,34.37
2023-11-26T20:51:48.500Z,34.49
2023-11-26T20:54:16.484Z,34.43
2023-11-26T20:56:44.439Z,34.09
2023-11-26T20:59:12.604Z,34.22
2023-11-26T21:01:40.960Z,34.30
2023-11-26T21:04:10.446Z,34.58
2023-11-26T21:06:43.413Z,34.43
2023-11-26T21:09:12.078Z,34.34
2023-11-26T21:11:44.333Z,34.46
2023-11-26T21:14:12.329Z,34.36
2023-11-26T21:16:40.304Z,34.32
2023-11-26T21:19:11.612Z,34.47
2023-11-26T21:21:41.435Z,34.40
2023-11-26T21:24:11.503Z,34.32
2023-11-26T21:26:39.871Z,34.27
2023-11-26T21:29:07.963Z,34.56
2023-11-26T21:31:38.858Z,34.54
2023-11-26T21:34:07.227Z,34.72
2023-11-26T21:36:35.333Z,34.21
2023-11-26T21:39:04.801Z,34.21
2023-11-26T21:41:33.164Z,34.15
2023-11-26T21:44:01.735Z,34.27
2023-11-26T21:46:36.114Z,34.38
2023-11-26T21:49:09.578Z,34.37
2023-11-26T21:51:38.578Z,34.50
2023-11-26T21:54:08.029Z,34.32
2023-11-26T21:56:36.567Z,34.36
2023-11-26T21:59:04.573Z,34.36
2023-11-26T22:01:32.917Z,34.40
2023-11-26T22:04:01.108Z,34.32
2023-11-26T22:06:29.133Z,34.31
2023-11-26T22:08:57.268Z,34.30
2023-11-26T22:11:26.908Z,34.32
2023-11-26T22:13:54.863Z,34.28
2023-11-26T22:16:22.989Z,34.34
2023-11-26T22:18:51.093Z,34.34
2023-11-26T22:21:19.832Z,34.27
2023-11-26T22:23:48.102Z,34.32
2023-11-26T22:26:16.190Z,34.55
2023-11-26T22:28:45.526Z,34.34
2023-11-26T22:31:15.698Z,34.37
2023-11-26T22:33:44.035Z,34.38
2023-11-26T22:36:12.370Z,34.43
2023-11-26T22:38:40.360Z,34.22
2023-11-26T22:41:09.117Z,34.26
2023-11-26T22:43:37.882Z,34.27
2023-11-26T22:46:07.914Z,34.23
2023-11-26T22:48:35.883Z,34.28
2023-11-26T22:51:03.880Z,34.29
2023-11-26T22:53:31.868Z,34.22
2023-11-26T22:55:59.865Z,34.26
2023-11-26T22:58:27.822Z,34.32
2023-11-26T23:00:56.129Z,34.31
2023-11-26T23:03:25.996Z,34.29
2023-11-26T23:05:54.036Z,34.43
2023-11-26T23:08:22.002Z,34.00
2023-11-26T23:10:50.018Z,34.28
2023-11-26T23:13:22.894Z,34.19
2023-11-26T23:15:51.360Z,34.19
2023-11-26T23:18:19.368Z,34.34
2023-11-26T23:20:49.111Z,34.23
2023-11-26T23:23:18.222Z,34.28
2023-11-26T23:25:50.461Z,34.04
2023-11-26T23:28:18.559Z,34.11
2023-11-26T23:30:47.901Z,33.99
2023-11-26T23:33:16.763Z,34.17
2023-11-26T23:35:44.787Z,34.22
2023-11-26T23:38:14.100Z,34.11
2023-11-26T23:40:47.297Z,34.23
2023-11-26T23:43:15.334Z,34.15
2023-11-26T23:45:43.875Z,34.05
2023-11-26T23:48:12.376Z,34.05
2023-11-26T23:50:40.427Z,34.32
2023-11-26T23:53:08.412Z,34.26
2023-11-26T23:55:37.794Z,34.22
2023-11-26T23:58:05.800Z,34.15
